createdAt,value
2022-11-20T00:00:41.147Z,13.57
2022-11-20T00:03:07.903Z,12.98
2022-11-20T00:05:34.815Z,14.57
2022-11-20T00:08:01.645Z,13.25
2022-11-20T00:10:28.418Z,13.70
2022-11-20T00:12:55.198Z,13.65
2022-11-20T00:15:22.034Z,14.23
2022-11-20T00:17:48.787Z,12.77
2022-11-20T00:20:15.875Z,13.75
2022-11-20T00:22:42.624Z,14.13
2022-11-20T00:25:09.634Z,14.05
2022-11-20T00:27:36.773Z,13.60
2022-11-20T00:30:04.276Z,13.07
2022-11-20T00:32:31.227Z,13.88
2022-11-20T00:34:58.003Z,14.13
2022-11-20T00:37:24.767Z,13.85
2022-11-20T00:39:51.547Z,14.02
2022-11-20T00:42:18.294Z,14.25
2022-11-20T00:44:45.025Z,13.80
2022-11-20T00:47:11.831Z,13.83
2022-11-20T00:49:38.574Z,14.77
2022-11-20T00:52:05.543Z,14.48
2022-11-20T00:54:32.266Z,14.35
2022-11-20T00:56:58.977Z,14.43
2022-11-20T00:59:25.735Z,14.83
2022-11-20T01:01:52.495Z,15.20
2022-11-20T01:04:19.457Z,14.15
2022-11-20T01:06:46.200Z,13.57
2022-11-20T01:09:14.215Z,14.80
2022-11-20T01:11:42.863Z,14.40
2022-11-20T01:14:13.397Z,14.50
2022-11-20T01:16:50.456Z,14.70
2022-11-20T01:19:20.842Z,14.00
2022-11-20T01:21:50.869Z,14.50
2022-11-20T01:24:18.634Z,13.33
2022-11-20T01:26:45.938Z,13.88
2022-11-20T01:29:18.095Z,13.52
2022-11-20T01:31:45.304Z,14.35
2022-11-20T01:34:14.183Z,14.18
2022-11-20T01:36:41.139Z,14.73
2022-11-20T01:39:15.973Z,13.27
2022-11-20T01:42:05.674Z,14.20
2022-11-20T01:44:58.506Z,13.90
2022-11-20T01:47:35.204Z,13.60
2022-11-20T01:50:04.445Z,13.33
2022-11-20T01:52:40.178Z,13.15
2022-11-20T01:55:10.145Z,12.75
2022-11-20T01:57:36.943Z,13.77
2022-11-20T02:00:11.399Z,13.32
2022-11-20T02:02:38.253Z,13.50
2022-11-20T02:05:26.913Z,12.65
2022-11-20T02:07:53.864Z,13.27
2022-11-20T02:10:20.663Z,12.65
2022-11-20T02:13:06.024Z,13.45
2022-11-20T02:15:34.071Z,12.27
2022-11-20T02:18:00.895Z,13.30
2022-11-20T02:20:27.660Z,13.10
2022-11-20T02:23:17.683Z,13.18
2022-11-20T02:25:44.542Z,12.38
2022-11-20T02:28:11.355Z,13.17
2022-11-20T02:30:38.102Z,13.35
2022-11-20T02:33:04.826Z,13.05
2022-11-20T02:35:31.834Z,12.52
2022-11-20T02:38:00.403Z,12.20
2022-11-20T02:40:27.163Z,12.23
2022-11-20T02:42:54.606Z,12.43
2022-11-20T02:45:21.453Z,12.68
2022-11-20T02:47:48.184Z,12.45
2022-11-20T02:50:14.996Z,12.43
2022-11-20T02:52:41.725Z,12.13
2022-11-20T02:55:08.583Z,12.60
2022-11-20T02:57:35.527Z,12.27
2022-11-20T03:00:02.354Z,12.20
2022-11-20T03:02:32.526Z,12.73
2022-11-20T03:04:59.414Z,12.10
2022-11-20T03:07:26.523Z,12.00
2022-11-20T03:09:53.343Z,11.95
2022-11-20T03:12:20.063Z,11.57
2022-11-20T03:14:52.651Z,13.00
2022-11-20T03:17:19.938Z,12.20
2022-11-20T03:19:46.694Z,11.73
2022-11-20T03:22:13.462Z,12.30
2022-11-20T03:24:40.174Z,12.63
2022-11-20T03:27:06.907Z,11.70
2022-11-20T03:29:33.653Z,12.63
2022-11-20T03:32:00.434Z,12.02
2022-11-20T03:34:27.204Z,12.93
2022-11-20T03:36:53.944Z,12.65
2022-11-20T03:39:21.047Z,12.73
2022-11-20T03:41:48.084Z,12.77
2022-11-20T03:44:14.814Z,12.20
2022-11-20T03:46:41.536Z,12.63
2022-11-20T03:49:08.323Z,11.88
2022-11-20T03:51:36.210Z,12.30
2022-11-20T03:54:05.187Z,12.40
2022-11-20T03:56:33.556Z,12.00
2022-11-20T03:59:00.334Z,11.93
2022-11-20T04:01:31.392Z,12.40
2022-11-20T04:03:58.244Z,11.80
2022-11-20T04:06:27.033Z,11.30
2022-11-20T04:08:56.105Z,11.32
2022-11-20T04:11:24.780Z,11.73
2022-11-20T04:13:53.086Z,11.48
2022-11-20T04:16:20.284Z,11.63
2022-11-20T04:18:47.109Z,11.77
2022-11-20T04:21:13.974Z,11.25
2022-11-20T04:23:40.753Z,11.35
2022-11-20T04:26:11.978Z,11.82
2022-11-20T04:28:40.173Z,11.65
2022-11-20T04:31:08.336Z,11.50
2022-11-20T04:33:35.356Z,11.50
2022-11-20T04:36:06.564Z,11.80
2022-11-20T04:38:33.355Z,11.07
2022-11-20T04:41:01.150Z,11.93
2022-11-20T04:43:28.054Z,10.82
2022-11-20T04:45:55.295Z,11.20
2022-11-20T04:48:22.366Z,11.43
2022-11-20T04:50:49.114Z,11.43
2022-11-20T04:53:15.955Z,12.05
2022-11-20T04:55:42.735Z,11.83
2022-11-20T04:58:09.513Z,11.50
2022-11-20T05:00:36.284Z,11.43
2022-11-20T05:03:03.025Z,11.82
2022-11-20T05:05:29.733Z,12.73
2022-11-20T05:07:59.692Z,12.17
2022-11-20T05:10:27.168Z,13.15
2022-11-20T05:12:53.938Z,13.23
2022-11-20T05:15:20.754Z,11.95
2022-11-20T05:17:51.248Z,12.82
2022-11-20T05:20:18.424Z,12.45
2022-11-20T05:22:45.255Z,12.45
2022-11-20T05:25:12.174Z,11.43
2022-11-20T05:27:38.909Z,12.50
2022-11-20T05:30:06.233Z,12.85
2022-11-20T05:32:32.987Z,12.63
2022-11-20T05:34:59.736Z,12.88
2022-11-20T05:37:26.524Z,11.93
2022-11-20T05:39:53.527Z,11.98
2022-11-20T05:42:39.085Z,12.93
2022-11-20T05:45:06.993Z,12.75
2022-11-20T05:47:34.528Z,12.65
2022-11-20T05:50:01.272Z,13.00
2022-11-20T05:52:31.203Z,11.57
2022-11-20T05:54:58.055Z,12.93
2022-11-20T05:57:24.787Z,12.50
2022-11-20T05:59:51.582Z,12.90
2022-11-20T06:02:18.489Z,12.98
2022-11-20T06:04:45.275Z,13.45
2022-11-20T06:07:12.076Z,13.60
2022-11-20T06:09:38.863Z,12.95
2022-11-20T06:12:06.136Z,13.75
2022-11-20T06:14:32.884Z,13.85
2022-11-20T06:16:59.725Z,12.43
2022-11-20T06:19:26.524Z,13.73
2022-11-20T06:21:53.281Z,13.40
2022-11-20T06:24:20.096Z,13.05
2022-11-20T06:26:46.908Z,14.18
2022-11-20T06:29:13.691Z,12.90
2022-11-20T06:31:40.516Z,13.60
2022-11-20T06:34:07.632Z,14.15
2022-11-20T06:36:34.496Z,14.05
2022-11-20T06:39:01.683Z,14.40
2022-11-20T06:41:29.066Z,12.93
2022-11-20T06:43:55.862Z,14.82
2022-11-20T06:46:22.739Z,13.90
2022-11-20T06:48:49.818Z,14.57
2022-11-20T06:51:16.716Z,12.85
2022-11-20T06:53:43.474Z,13.30
2022-11-20T06:56:10.267Z,12.93
2022-11-20T06:58:37.784Z,13.48
2022-11-20T07:01:09.187Z,14.55
2022-11-20T07:03:36.023Z,13.93
2022-11-20T07:06:03.175Z,14.48
2022-11-20T07:08:30.103Z,13.73
2022-11-20T07:11:00.642Z,14.10
2022-11-20T07:13:28.285Z,13.20
2022-11-20T07:15:55.116Z,13.95
2022-11-20T07:18:22.066Z,13.70
2022-11-20T07:20:48.834Z,14.50
2022-11-20T07:23:15.574Z,13.73
2022-11-20T07:25:42.323Z,13.90
2022-11-20T07:28:09.359Z,13.27
2022-11-20T07:30:36.123Z,13.82
2022-11-20T07:33:02.870Z,13.38
2022-11-20T07:35:29.595Z,13.45
2022-11-20T07:37:56.331Z,13.95
2022-11-20T07:40:23.119Z,12.95
2022-11-20T07:42:51.135Z,14.02
2022-11-20T07:45:18.886Z,13.15
2022-11-20T07:47:45.623Z,14.10
2022-11-20T07:50:12.751Z,14.35
2022-11-20T07:52:39.554Z,13.27
2022-11-20T07:55:07.026Z,12.80
2022-11-20T07:57:33.816Z,13.27
2022-11-20T08:00:00.625Z,14.13
2022-11-20T08:02:27.367Z,13.55
2022-11-20T08:04:54.146Z,13.43
2022-11-20T08:07:20.890Z,13.27
2022-11-20T08:09:47.678Z,13.80
2022-11-20T08:12:39.833Z,13.50
2022-11-20T08:15:12.593Z,14.40
2022-11-20T08:17:40.094Z,14.55
2022-11-20T08:20:07.264Z,14.73
2022-11-20T08:22:34.017Z,14.65
2022-11-20T08:25:00.755Z,14.27
2022-11-20T08:27:27.519Z,15.30
2022-11-20T08:29:54.314Z,15.07
2022-11-20T08:32:21.077Z,14.98
2022-11-20T08:34:47.887Z,15.27
2022-11-20T08:37:14.662Z,14.70
2022-11-20T08:39:41.438Z,15.63
2022-11-20T08:42:09.258Z,16.15
2022-11-20T08:44:36.044Z,14.98
2022-11-20T08:47:02.799Z,15.13
2022-11-20T08:49:29.552Z,15.50
2022-11-20T08:51:56.482Z,15.02
2022-11-20T08:54:23.702Z,15.90
2022-11-20T08:56:50.474Z,17.63
2022-11-20T08:59:27.334Z,15.93
2022-11-20T09:02:03.915Z,16.83
2022-11-20T09:04:30.643Z,17.08
2022-11-20T09:06:57.484Z,16.98
2022-11-20T09:09:24.582Z,17.88
2022-11-20T09:11:51.656Z,18.38
2022-11-20T09:14:18.406Z,17.97
2022-11-20T09:16:46.700Z,18.02
2022-11-20T09:19:34.710Z,17.90
2022-11-20T09:22:01.128Z,18.55
2022-11-20T09:24:28.930Z,18.98
2022-11-20T09:26:55.741Z,18.83
2022-11-20T09:29:23.151Z,19.98
2022-11-20T09:31:50.227Z,20.05
2022-11-20T09:34:17.020Z,20.77
2022-11-20T09:36:43.757Z,20.60
2022-11-20T09:39:10.488Z,20.87
2022-11-20T09:42:23.737Z,21.00
2022-11-20T09:44:56.181Z,19.73
2022-11-20T09:47:37.743Z,20.35
2022-11-20T09:50:41.623Z,20.45
2022-11-20T09:53:45.885Z,19.63
2022-11-20T09:56:12.759Z,21.10
2022-11-20T09:58:43.990Z,21.50
2022-11-20T10:01:16.569Z,20.27
2022-11-20T10:04:16.177Z,21.52
2022-11-20T10:09:57.076Z,19.58
2022-11-20T10:13:01.105Z,20.45
2022-11-20T10:16:12.733Z,21.80
2022-11-20T10:18:57.774Z,19.92
2022-11-20T10:21:56.847Z,20.80
2022-11-20T10:24:47.097Z,21.05
2022-11-20T10:27:44.404Z,20.70
2022-11-20T10:30:15.874Z,20.38
2022-11-20T10:32:48.344Z,20.50
2022-11-20T10:35:14.996Z,20.93
2022-11-20T10:37:45.464Z,21.00
2022-11-20T10:40:33.633Z,20.85
2022-11-20T10:43:04.159Z,21.30
2022-11-20T10:45:58.777Z,20.13
2022-11-20T10:48:26.914Z,19.90
2022-11-20T10:50:56.654Z,20.45
2022-11-20T10:53:59.145Z,20.75
2022-11-20T10:56:59.707Z,19.27
2022-11-20T10:59:26.379Z,19.80
2022-11-20T11:01:53.235Z,20.07
2022-11-20T11:04:35.222Z,20.83
2022-11-20T11:07:26.632Z,21.50
2022-11-20T11:09:54.728Z,20.60
2022-11-20T11:12:22.937Z,21.55
2022-11-20T11:14:54.293Z,21.30
2022-11-20T11:17:28.371Z,21.85
2022-11-20T11:20:22.329Z,22.02
2022-11-20T11:22:51.105Z,21.30
2022-11-20T11:25:25.411Z,22.63
2022-11-20T11:27:52.578Z,22.97
2022-11-20T11:30:20.257Z,23.25
2022-11-20T11:32:47.509Z,23.75
2022-11-20T11:35:25.324Z,22.83
2022-11-20T11:37:52.461Z,23.73
2022-11-20T11:40:24.300Z,22.97
2022-11-20T11:43:03.774Z,23.70
2022-11-20T11:45:30.563Z,22.38
2022-11-20T11:47:58.985Z,22.73
2022-11-20T11:50:26.904Z,23.38
2022-11-20T11:53:10.565Z,22.90
2022-11-20T11:56:14.562Z,22.83
2022-11-20T11:58:48.061Z,22.40
2022-11-20T12:01:35.718Z,23.38
2022-11-20T12:04:14.568Z,23.23
2022-11-20T12:06:42.703Z,22.37
2022-11-20T12:09:12.835Z,23.85
2022-11-20T12:11:57.078Z,24.75
2022-11-20T12:14:30.367Z,23.23
2022-11-20T12:16:58.681Z,24.23
2022-11-20T12:19:25.804Z,22.97
2022-11-20T12:22:30.324Z,22.40
2022-11-20T12:24:56.996Z,22.42
2022-11-20T12:27:48.665Z,22.75
2022-11-20T12:30:16.373Z,23.17
2022-11-20T12:33:20.713Z,23.10
2022-11-20T12:36:08.125Z,22.08
2022-11-20T12:39:12.255Z,22.80
2022-11-20T12:42:34.891Z,22.45
2022-11-20T12:45:23.284Z,22.95
2022-11-20T12:48:08.430Z,24.37
2022-11-20T12:54:14.098Z,23.67
2022-11-20T12:56:40.806Z,23.60
2022-11-20T12:59:44.788Z,24.67
2022-11-20T13:02:46.017Z,22.30
2022-11-20T13:05:35.935Z,22.40
2022-11-20T13:08:02.669Z,24.00
2022-11-20T13:10:40.398Z,24.67
2022-11-20T13:13:16.230Z,23.27
2022-11-20T13:16:14.668Z,23.70
2022-11-20T13:18:43.539Z,24.30
2022-11-20T13:21:22.048Z,24.13
2022-11-20T13:23:48.806Z,23.23
2022-11-20T13:26:23.275Z,24.42
2022-11-20T13:29:03.064Z,23.07
2022-11-20T13:31:34.865Z,22.20
2022-11-20T13:34:02.978Z,24.52
2022-11-20T13:36:30.227Z,23.20
2022-11-20T13:38:57.440Z,23.70
2022-11-20T13:41:39.029Z,22.43
2022-11-20T13:44:16.634Z,22.58
2022-11-20T13:46:45.696Z,23.02
2022-11-20T13:49:33.646Z,23.67
2022-11-20T13:52:35.575Z,22.92
2022-11-20T13:55:23.766Z,21.63
2022-11-20T13:57:56.634Z,22.55
2022-11-20T14:00:24.548Z,22.80
2022-11-20T14:03:14.238Z,21.70
2022-11-20T14:05:42.190Z,21.85
2022-11-20T14:08:15.606Z,21.83
2022-11-20T14:10:42.327Z,23.10
2022-11-20T14:13:27.115Z,22.92
2022-11-20T14:15:58.096Z,22.13
2022-11-20T14:18:26.743Z,22.33
2022-11-20T14:20:53.593Z,22.73
2022-11-20T14:23:29.916Z,23.27
2022-11-20T14:25:57.228Z,22.13
2022-11-20T14:28:28.780Z,22.40
2022-11-20T14:30:56.272Z,22.63
2022-11-20T14:33:25.929Z,22.77
2022-11-20T14:35:56.747Z,21.70
2022-11-20T14:38:26.435Z,23.35
2022-11-20T14:40:53.297Z,21.33
2022-11-20T14:43:23.996Z,22.55
2022-11-20T14:46:01.626Z,22.17
2022-11-20T14:48:43.404Z,22.70
2022-11-20T14:51:11.986Z,23.42
2022-11-20T14:53:38.860Z,21.77
2022-11-20T14:56:05.752Z,22.80
2022-11-20T14:58:34.439Z,21.50
2022-11-20T15:01:06.266Z,23.08
2022-11-20T15:03:40.535Z,21.38
2022-11-20T15:06:08.908Z,21.75
2022-11-20T15:08:35.865Z,22.50
2022-11-20T15:11:02.669Z,21.50
2022-11-20T15:13:38.885Z,22.50
2022-11-20T15:16:15.036Z,22.55
2022-11-20T15:18:44.509Z,22.80
2022-11-20T15:21:14.677Z,21.70
2022-11-20T15:23:41.550Z,22.87
2022-11-20T15:26:09.149Z,22.08
2022-11-20T15:28:41.391Z,22.60
2022-11-20T15:31:08.245Z,22.27
2022-11-20T15:33:35.319Z,22.02
2022-11-20T15:36:02.092Z,21.60
2022-11-20T15:38:28.832Z,22.63
2022-11-20T15:40:55.595Z,22.17
2022-11-20T15:43:22.533Z,21.60
2022-11-20T15:45:51.160Z,21.88
2022-11-20T15:48:20.816Z,21.57
2022-11-20T15:51:12.247Z,21.85
2022-11-20T15:53:39.989Z,22.30
2022-11-20T15:56:07.017Z,21.98
2022-11-20T15:58:33.770Z,22.02
2022-11-20T16:01:00.636Z,22.73
2022-11-20T16:03:27.466Z,22.88
2022-11-20T16:05:54.282Z,22.30
2022-11-20T16:08:21.094Z,22.42
2022-11-20T16:10:47.862Z,23.15
2022-11-20T16:13:34.857Z,22.30
2022-11-20T16:16:06.110Z,23.88
2022-11-20T16:18:33.148Z,23.10
2022-11-20T16:20:59.948Z,24.65
2022-11-20T16:23:26.814Z,22.80
2022-11-20T16:25:53.603Z,22.33
2022-11-20T16:28:20.686Z,22.98
2022-11-20T16:30:47.544Z,24.15
2022-11-20T16:33:18.248Z,24.67
2022-11-20T16:35:45.057Z,24.08
2022-11-20T16:38:11.879Z,22.47
2022-11-20T16:40:38.646Z,22.85
2022-11-20T16:43:12.258Z,24.00
2022-11-20T16:45:44.413Z,23.30
2022-11-20T16:48:15.521Z,23.52
2022-11-20T16:50:52.857Z,23.03
2022-11-20T16:53:20.477Z,23.90
2022-11-20T16:55:47.347Z,23.63
2022-11-20T16:58:15.098Z,23.52
2022-11-20T17:00:45.595Z,24.17
2022-11-20T17:03:17.720Z,23.27
2022-11-20T17:05:44.490Z,24.42
2022-11-20T17:08:11.341Z,23.60
2022-11-20T17:10:38.144Z,24.27
2022-11-20T17:13:04.894Z,22.80
2022-11-20T17:15:31.771Z,23.27
2022-11-20T17:17:58.535Z,23.63
2022-11-20T17:20:25.321Z,23.83
2022-11-20T17:22:52.078Z,22.08
2022-11-20T17:25:18.986Z,23.85
2022-11-20T17:27:45.718Z,22.83
2022-11-20T17:30:12.608Z,23.65
2022-11-20T17:32:39.935Z,23.30
2022-11-20T17:35:06.958Z,23.83
2022-11-20T17:37:33.705Z,24.17
2022-11-20T17:40:00.440Z,23.27
2022-11-20T17:42:27.199Z,23.73
2022-11-20T17:44:53.946Z,24.17
2022-11-20T17:47:20.748Z,23.50
2022-11-20T17:49:47.485Z,25.08
2022-11-20T17:52:14.276Z,23.87
2022-11-20T17:54:40.986Z,24.73
2022-11-20T17:57:27.586Z,24.50
2022-11-20T17:59:54.435Z,23.75
2022-11-20T18:02:21.196Z,25.02
2022-11-20T18:04:47.927Z,25.00
2022-11-20T18:07:14.696Z,24.95
2022-11-20T18:09:41.475Z,25.05
2022-11-20T18:12:08.225Z,24.10
2022-11-20T18:14:36.696Z,24.52
2022-11-20T18:17:08.741Z,24.97
2022-11-20T18:20:01.001Z,25.08
2022-11-20T18:22:32.906Z,24.40
2022-11-20T18:24:59.738Z,23.83
2022-11-20T18:27:26.490Z,24.90
2022-11-20T18:29:53.563Z,25.70
2022-11-20T18:32:21.628Z,24.83
2022-11-20T18:34:48.581Z,24.75
2022-11-20T18:37:16.543Z,25.52
2022-11-20T18:39:43.694Z,25.30
2022-11-20T18:42:52.763Z,24.10
2022-11-20T18:45:19.536Z,24.55
2022-11-20T18:47:46.298Z,23.85
2022-11-20T18:50:13.045Z,26.23
2022-11-20T18:52:44.762Z,24.85
2022-11-20T18:55:12.748Z,24.87
2022-11-20T18:57:39.604Z,25.92
2022-11-20T19:00:09.563Z,26.85
2022-11-20T19:02:41.763Z,25.83
2022-11-20T19:05:13.305Z,23.67
2022-11-20T19:07:40.400Z,25.93
2022-11-20T19:10:07.432Z,26.52
2022-11-20T19:12:34.794Z,25.65
2022-11-20T19:15:01.531Z,26.77
2022-11-20T19:17:28.264Z,25.98
2022-11-20T19:19:55.267Z,25.50
2022-11-20T19:22:22.426Z,26.15
2022-11-20T19:24:49.512Z,25.67
2022-11-20T19:27:16.343Z,24.38
2022-11-20T19:29:43.183Z,25.70
2022-11-20T19:32:09.950Z,27.05
2022-11-20T19:34:36.946Z,25.70
2022-11-20T19:37:03.794Z,25.75
2022-11-20T19:39:30.650Z,26.20
2022-11-20T19:41:57.410Z,26.80
2022-11-20T19:44:24.210Z,26.30
2022-11-20T19:46:51.087Z,26.27
2022-11-20T19:49:17.854Z,24.98
2022-11-20T19:51:48.432Z,25.02
2022-11-20T19:54:15.337Z,25.92
2022-11-20T19:56:42.158Z,26.50
2022-11-20T19:59:08.914Z,27.30
2022-11-20T20:01:35.758Z,27.98
2022-11-20T20:04:05.225Z,27.10
2022-11-20T20:06:32.975Z,25.48
2022-11-20T20:09:01.657Z,26.52
2022-11-20T20:11:30.122Z,25.42
2022-11-20T20:13:59.133Z,28.05
2022-11-20T20:16:26.447Z,26.80
2022-11-20T20:19:01.595Z,26.50
2022-11-20T20:21:30.449Z,25.00
2022-11-20T20:23:57.686Z,26.15
2022-11-20T20:26:24.613Z,27.55
2022-11-20T20:28:51.481Z,26.23
2022-11-20T20:31:20.056Z,26.98
2022-11-20T20:33:46.867Z,27.03
2022-11-20T20:36:15.196Z,26.17
2022-11-20T20:38:42.485Z,26.02
2022-11-20T20:41:09.340Z,26.80
2022-11-20T20:43:56.751Z,25.95
2022-11-20T20:46:24.038Z,26.10
2022-11-20T20:48:54.337Z,25.35
2022-11-20T20:51:22.187Z,25.17
2022-11-20T20:53:49.057Z,26.58
2022-11-20T20:56:15.925Z,25.92
2022-11-20T20:58:42.713Z,26.10
2022-11-20T21:01:12.121Z,25.42
2022-11-20T21:03:39.213Z,27.40
2022-11-20T21:06:08.207Z,26.27
2022-11-20T21:08:39.110Z,24.83
2022-11-20T21:11:08.954Z,26.30
2022-11-20T21:13:36.253Z,26.65
2022-11-20T21:16:03.087Z,26.75
2022-11-20T21:18:29.895Z,25.38
2022-11-20T21:21:15.093Z,25.35
2022-11-20T21:23:44.625Z,23.73
2022-11-20T21:26:11.414Z,25.58
2022-11-20T21:28:38.188Z,25.42
2022-11-20T21:31:08.608Z,24.50
2022-11-20T21:33:42.963Z,24.17
2022-11-20T21:36:11.233Z,23.77
2022-11-20T21:38:38.017Z,23.10
2022-11-20T21:41:05.353Z,24.73
2022-11-20T21:43:32.234Z,23.42
2022-11-20T21:46:02.804Z,22.45
2022-11-20T21:48:33.796Z,22.80
2022-11-20T21:51:08.044Z,23.85
2022-11-20T21:53:34.913Z,22.92
2022-11-20T21:56:02.114Z,21.95
2022-11-20T21:58:28.909Z,21.38
2022-11-20T22:00:55.688Z,21.13
2022-11-20T22:03:22.804Z,21.58
2022-11-20T22:05:58.876Z,20.98
2022-11-20T22:08:26.448Z,18.58
2022-11-20T22:10:57.315Z,20.00
2022-11-20T22:13:43.275Z,19.03
2022-11-20T22:16:10.163Z,18.88
2022-11-20T22:18:37.038Z,19.42
2022-11-20T22:21:09.497Z,18.73
2022-11-20T22:23:36.389Z,19.35
2022-11-20T22:26:22.304Z,16.83
2022-11-20T22:28:50.076Z,17.13
2022-11-20T22:31:17.056Z,18.23
2022-11-20T22:33:43.885Z,17.88
2022-11-20T22:36:11.308Z,16.33
2022-11-20T22:38:39.663Z,16.33
2022-11-20T22:41:14.120Z,16.98
2022-11-20T22:43:41.554Z,16.60
2022-11-20T22:46:15.524Z,17.35
2022-11-20T22:49:05.976Z,17.40
2022-11-20T22:51:34.335Z,17.03
2022-11-20T22:54:01.341Z,16.92
2022-11-20T22:56:28.095Z,16.52
2022-11-20T22:58:55.174Z,15.82
2022-11-20T23:01:29.777Z,16.30
2022-11-20T23:03:58.115Z,15.97
2022-11-20T23:06:25.046Z,15.75
2022-11-20T23:08:51.906Z,16.35
2022-11-20T23:11:29.066Z,15.23
2022-11-20T23:14:01.258Z,15.15
2022-11-20T23:16:29.288Z,15.20
2022-11-20T23:18:57.184Z,15.88
2022-11-20T23:21:24.081Z,15.50
2022-11-20T23:23:51.895Z,14.93
2022-11-20T23:26:19.835Z,15.43
2022-11-20T23:28:46.699Z,14.37
2022-11-20T23:31:13.915Z,15.27
2022-11-20T23:33:41.784Z,15.60
2022-11-20T23:36:08.845Z,15.07
2022-11-20T23:38:35.616Z,15.45
2022-11-20T23:41:02.610Z,14.83
2022-11-20T23:43:29.455Z,15.18
2022-11-20T23:45:57.552Z,14.38
2022-11-20T23:48:29.035Z,14.45
2022-11-20T23:50:55.849Z,13.90
2022-11-20T23:53:22.745Z,13.17
2022-11-20T23:55:56.989Z,14.70
2022-11-20T23:58:24.877Z,13.35
